sensor_id;sensor_type;location;lat;lon;timestamp;P1;durP1;ratioP1;P2;durP2;ratioP2
13057;SDS011;6595;49.578;11.012;2022-09-13T00:00:23;7.7;;;6.9;;
13057;SDS011;6595;49.578;11.012;2022-09-13T00:02:23;7.7;;;7.0;;
13057;SDS011;6595;49.578;11.012;2022-09-13T00:04:24;7.5;;;6.8;;
13057;SDS011;6595;49.578;11.012;2022-09-13T00:06:23;7.8;;;7.0;;
13057;SDS011;6595;49.578;11.012;2022-09-13T00:08:23;7.8;;;7.0;;
13057;SDS011;6595;49.578;11.012;2022-09-13T00:10:23;8.3;;;7.3;;
13057;SDS011;6595;49.578;11.012;2022-09-13T00:12:23;8.3;;;7.3;;
13057;SDS011;6595;49.578;11.012;2022-09-13T00:14:24;7.8;;;6.6;;
13057;SDS011;6595;49.578;11.012;2022-09-13T00:16:24;9.0;;;8.1;;
13057;SDS011;6595;49.578;11.012;2022-09-13T00:18:24;9.0;;;8.1;;
13057;SDS011;6595;49.578;11.012;2022-09-13T00:20:24;8.6;;;7.7;;
13057;SDS011;6595;49.578;11.012;2022-09-13T00:22:24;8.4;;;7.5;;
13057;SDS011;6595;49.578;11.012;2022-09-13T00:24:24;8.3;;;7.4;;
13057;SDS011;6595;49.578;11.012;2022-09-13T00:26:24;7.6;;;6.8;;
13057;SDS011;6595;49.578;11.012;2022-09-13T00:28:23;7.6;;;6.8;;
13057;SDS011;6595;49.578;11.012;2022-09-13T00:30:23;8.2;;;7.4;;
13057;SDS011;6595;49.578;11.012;2022-09-13T00:32:24;8.2;;;7.4;;
13057;SDS011;6595;49.578;11.012;2022-09-13T00:34:24;8.2;;;7.0;;
13057;SDS011;6595;49.578;11.012;2022-09-13T00:36:23;8.0;;;7.2;;
13057;SDS011;6595;49.578;11.012;2022-09-13T00:38:23;8.0;;;7.2;;
13057;SDS011;6595;49.578;11.012;2022-09-13T00:40:24;8.8;;;7.8;;
13057;SDS011;6595;49.578;11.012;2022-09-13T00:42:24;7.6;;;6.8;;
13057;SDS011;6595;49.578;11.012;2022-09-13T00:46:26;8.7;;;7.5;;
13057;SDS011;6595;49.578;11.012;2022-09-13T00:48:23;8.5;;;7.3;;
13057;SDS011;6595;49.578;11.012;2022-09-13T00:50:24;7.6;;;6.9;;
13057;SDS011;6595;49.578;11.012;2022-09-13T00:52:24;7.6;;;6.9;;
13057;SDS011;6595;49.578;11.012;2022-09-13T00:54:24;8.3;;;7.4;;
13057;SDS011;6595;49.578;11.012;2022-09-13T00:56:24;8.3;;;7.4;;
13057;SDS011;6595;49.578;11.012;2022-09-13T00:58:24;8.0;;;7.2;;
13057;SDS011;6595;49.578;11.012;2022-09-13T01:00:23;8.3;;;7.4;;
13057;SDS011;6595;49.578;11.012;2022-09-13T01:02:23;7.7;;;6.9;;
13057;SDS011;6595;49.578;11.012;2022-09-13T01:04:24;7.8;;;7.1;;
13057;SDS011;6595;49.578;11.012;2022-09-13T01:06:23;7.8;;;7.1;;
13057;SDS011;6595;49.578;11.012;2022-09-13T01:08:23;7.4;;;6.6;;
13057;SDS011;6595;49.578;11.012;2022-09-13T01:10:23;7.8;;;7.0;;
13057;SDS011;6595;49.578;11.012;2022-09-13T01:12:25;8.0;;;7.2;;
13057;SDS011;6595;49.578;11.012;2022-09-13T01:14:23;7.8;;;6.8;;
13057;SDS011;6595;49.578;11.012;2022-09-13T01:16:24;7.8;;;6.8;;
13057;SDS011;6595;49.578;11.012;2022-09-13T01:18:24;7.9;;;7.2;;
13057;SDS011;6595;49.578;11.012;2022-09-13T01:20:25;7.9;;;7.2;;
13057;SDS011;6595;49.578;11.012;2022-09-13T01:22:31;8.2;;;7.4;;
13057;SDS011;6595;49.578;11.012;2022-09-13T01:26:33;8.5;;;7.6;;
13057;SDS011;6595;49.578;11.012;2022-09-13T01:28:29;8.6;;;7.7;;
13057;SDS011;6595;49.578;11.012;2022-09-13T01:30:24;8.0;;;7.0;;
13057;SDS011;6595;49.578;11.012;2022-09-13T01:32:25;8.5;;;7.2;;
13057;SDS011;6595;49.578;11.012;2022-09-13T01:34:26;9.0;;;7.5;;
13057;SDS011;6595;49.578;11.012;2022-09-13T01:36:29;9.0;;;7.5;;
13057;SDS011;6595;49.578;11.012;2022-09-13T01:38:28;8.3;;;6.8;;
13057;SDS011;6595;49.578;11.012;2022-09-13T01:40:27;8.0;;;7.2;;
13057;SDS011;6595;49.578;11.012;2022-09-13T01:42:26;8.0;;;7.2;;
13057;SDS011;6595;49.578;11.012;2022-09-13T01:44:27;7.5;;;6.8;;
13057;SDS011;6595;49.578;11.012;2022-09-13T01:46:25;7.5;;;6.8;;
13057;SDS011;6595;49.578;11.012;2022-09-13T01:48:26;9.0;;;7.3;;
13057;SDS011;6595;49.578;11.012;2022-09-13T01:50:27;7.8;;;7.1;;
13057;SDS011;6595;49.578;11.012;2022-09-13T01:52:25;7.8;;;7.1;;
13057;SDS011;6595;49.578;11.012;2022-09-13T01:54:25;7.8;;;7.1;;
13057;SDS011;6595;49.578;11.012;2022-09-13T01:56:25;8.3;;;7.0;;
13057;SDS011;6595;49.578;11.012;2022-09-13T01:58:25;8.6;;;7.7;;
13057;SDS011;6595;49.578;11.012;2022-09-13T02:00:24;8.7;;;7.5;;
13057;SDS011;6595;49.578;11.012;2022-09-13T02:02:25;8.1;;;7.3;;
13057;SDS011;6595;49.578;11.012;2022-09-13T02:04:24;8.1;;;7.3;;
13057;SDS011;6595;49.578;11.012;2022-09-13T02:06:25;8.5;;;7.6;;
13057;SDS011;6595;49.578;11.012;2022-09-13T02:08:24;8.5;;;7.6;;
13057;SDS011;6595;49.578;11.012;2022-09-13T02:10:25;8.5;;;7.2;;
13057;SDS011;6595;49.578;11.012;2022-09-13T02:12:24;8.5;;;7.2;;
13057;SDS011;6595;49.578;11.012;2022-09-13T02:14:24;8.0;;;7.2;;
13057;SDS011;6595;49.578;11.012;2022-09-13T02:16:25;7.6;;;6.9;;
13057;SDS011;6595;49.578;11.012;2022-09-13T02:18:23;7.6;;;6.9;;
13057;SDS011;6595;49.578;11.012;2022-09-13T02:20:24;7.8;;;6.9;;
13057;SDS011;6595;49.578;11.012;2022-09-13T02:22:25;7.8;;;7.0;;
13057;SDS011;6595;49.578;11.012;2022-09-13T02:24:23;7.8;;;7.0;;
13057;SDS011;6595;49.578;11.012;2022-09-13T02:26:23;7.8;;;7.0;;
13057;SDS011;6595;49.578;11.012;2022-09-13T02:28:26;9.3;;;7.2;;
13057;SDS011;6595;49.578;11.012;2022-09-13T02:30:23;8.5;;;7.6;;
13057;SDS011;6595;49.578;11.012;2022-09-13T02:32:24;8.2;;;7.3;;
13057;SDS011;6595;49.578;11.012;2022-09-13T02:34:24;8.2;;;7.3;;
13057;SDS011;6595;49.578;11.012;2022-09-13T02:36:25;8.2;;;7.4;;
13057;SDS011;6595;49.578;11.012;2022-09-13T02:38:24;8.3;;;7.3;;
13057;SDS011;6595;49.578;11.012;2022-09-13T02:40:24;8.3;;;7.3;;
13057;SDS011;6595;49.578;11.012;2022-09-13T02:42:25;8.4;;;7.6;;
13057;SDS011;6595;49.578;11.012;2022-09-13T02:44:24;8.7;;;7.8;;
13057;SDS011;6595;49.578;11.012;2022-09-13T02:46:27;8.5;;;7.6;;
13057;SDS011;6595;49.578;11.012;2022-09-13T02:48:26;8.5;;;7.6;;
13057;SDS011;6595;49.578;11.012;2022-09-13T02:50:27;8.1;;;7.3;;
13057;SDS011;6595;49.578;11.012;2022-09-13T02:52:28;7.9;;;7.0;;
13057;SDS011;6595;49.578;11.012;2022-09-13T02:54:24;7.9;;;7.0;;
13057;SDS011;6595;49.578;11.012;2022-09-13T02:56:26;8.4;;;7.5;;
13057;SDS011;6595;49.578;11.012;2022-09-13T02:58:24;8.3;;;7.4;;
13057;SDS011;6595;49.578;11.012;2022-09-13T03:00:23;9.2;;;7.6;;
13057;SDS011;6595;49.578;11.012;2022-09-13T03:02:24;8.6;;;7.8;;
13057;SDS011;6595;49.578;11.012;2022-09-13T03:04:24;8.6;;;7.8;;
13057;SDS011;6595;49.578;11.012;2022-09-13T03:06:23;8.1;;;7.3;;
13057;SDS011;6595;49.578;11.012;2022-09-13T03:08:23;8.3;;;7.5;;
13057;SDS011;6595;49.578;11.012;2022-09-13T03:10:23;8.4;;;7.2;;
13057;SDS011;6595;49.578;11.012;2022-09-13T03:12:29;8.5;;;7.7;;
13057;SDS011;6595;49.578;11.012;2022-09-13T03:14:28;8.5;;;7.7;;
13057;SDS011;6595;49.578;11.012;2022-09-13T03:16:28;8.4;;;7.5;;
13057;SDS011;6595;49.578;11.012;2022-09-13T03:18:28;9.3;;;7.7;;
13057;SDS011;6595;49.578;11.012;2022-09-13T03:20:25;8.6;;;7.7;;
13057;SDS011;6595;49.578;11.012;2022-09-13T03:22:28;8.6;;;7.7;;
13057;SDS011;6595;49.578;11.012;2022-09-13T03:24:25;9.9;;;7.5;;
13057;SDS011;6595;49.578;11.012;2022-09-13T03:26:25;8.2;;;7.4;;
13057;SDS011;6595;49.578;11.012;2022-09-13T03:28:26;9.2;;;7.9;;
13057;SDS011;6595;49.578;11.012;2022-09-13T03:30:24;9.3;;;7.4;;
13057;SDS011;6595;49.578;11.012;2022-09-13T03:32:25;9.3;;;7.4;;
13057;SDS011;6595;49.578;11.012;2022-09-13T03:34:31;8.3;;;7.5;;
13057;SDS011;6595;49.578;11.012;2022-09-13T03:36:24;8.0;;;7.2;;
13057;SDS011;6595;49.578;11.012;2022-09-13T03:38:25;8.8;;;7.6;;
13057;SDS011;6595;49.578;11.012;2022-09-13T03:40:26;8.3;;;7.5;;
13057;SDS011;6595;49.578;11.012;2022-09-13T03:42:27;8.3;;;7.5;;
13057;SDS011;6595;49.578;11.012;2022-09-13T03:44:24;8.9;;;8.0;;
13057;SDS011;6595;49.578;11.012;2022-09-13T03:46:24;8.2;;;7.3;;
13057;SDS011;6595;49.578;11.012;2022-09-13T03:48:23;8.4;;;7.5;;
13057;SDS011;6595;49.578;11.012;2022-09-13T03:50:23;8.4;;;7.5;;
13057;SDS011;6595;49.578;11.012;2022-09-13T03:52:23;8.7;;;7.6;;
13057;SDS011;6595;49.578;11.012;2022-09-13T03:54:24;8.4;;;7.5;;
13057;SDS011;6595;49.578;11.012;2022-09-13T03:56:24;8.4;;;7.5;;
13057;SDS011;6595;49.578;11.012;2022-09-13T03:58:24;8.4;;;7.5;;
13057;SDS011;6595;49.578;11.012;2022-09-13T04:00:24;7.9;;;7.1;;
13057;SDS011;6595;49.578;11.012;2022-09-13T04:02:24;7.9;;;7.1;;
13057;SDS011;6595;49.578;11.012;2022-09-13T04:04:23;9.7;;;7.8;;
13057;SDS011;6595;49.578;11.012;2022-09-13T04:06:24;8.8;;;7.9;;
13057;SDS011;6595;49.578;11.012;2022-09-13T04:08:24;8.4;;;7.5;;
13057;SDS011;6595;49.578;11.012;2022-09-13T04:10:23;8.4;;;7.5;;
13057;SDS011;6595;49.578;11.012;2022-09-13T04:12:23;8.3;;;7.4;;
13057;SDS011;6595;49.578;11.012;2022-09-13T04:14:24;8.7;;;7.8;;
13057;SDS011;6595;49.578;11.012;2022-09-13T04:16:24;8.6;;;7.7;;
13057;SDS011;6595;49.578;11.012;2022-09-13T04:18:23;8.6;;;7.7;;
13057;SDS011;6595;49.578;11.012;2022-09-13T04:20:23;8.5;;;7.6;;
13057;SDS011;6595;49.578;11.012;2022-09-13T04:22:23;9.4;;;7.7;;
13057;SDS011;6595;49.578;11.012;2022-09-13T04:24:24;9.4;;;7.7;;
13057;SDS011;6595;49.578;11.012;2022-09-13T04:26:24;8.7;;;7.7;;
13057;SDS011;6595;49.578;11.012;2022-09-13T04:28:24;8.7;;;7.7;;
13057;SDS011;6595;49.578;11.012;2022-09-13T04:30:24;8.7;;;7.7;;
13057;SDS011;6595;49.578;11.012;2022-09-13T04:32:23;11.1;;;7.7;;
13057;SDS011;6595;49.578;11.012;2022-09-13T04:34:24;9.4;;;7.7;;
13057;SDS011;6595;49.578;11.012;2022-09-13T04:36:23;8.6;;;7.6;;
13057;SDS011;6595;49.578;11.012;2022-09-13T04:38:23;8.6;;;7.6;;
13057;SDS011;6595;49.578;11.012;2022-09-13T04:40:23;8.8;;;7.8;;
13057;SDS011;6595;49.578;11.012;2022-09-13T04:42:23;8.9;;;8.0;;
13057;SDS011;6595;49.578;11.012;2022-09-13T04:44:23;8.9;;;8.0;;
13057;SDS011;6595;49.578;11.012;2022-09-13T04:46:24;8.5;;;7.6;;
13057;SDS011;6595;49.578;11.012;2022-09-13T04:48:24;8.5;;;7.6;;
13057;SDS011;6595;49.578;11.012;2022-09-13T04:50:23;8.2;;;7.4;;
13057;SDS011;6595;49.578;11.012;2022-09-13T04:52:23;8.9;;;7.9;;
13057;SDS011;6595;49.578;11.012;2022-09-13T04:54:23;8.7;;;7.8;;
13057;SDS011;6595;49.578;11.012;2022-09-13T04:56:23;10.4;;;8.6;;
13057;SDS011;6595;49.578;11.012;2022-09-13T04:58:23;10.0;;;8.6;;
13057;SDS011;6595;49.578;11.012;2022-09-13T05:00:23;10.0;;;8.6;;
13057;SDS011;6595;49.578;11.012;2022-09-13T05:02:24;8.7;;;7.8;;
13057;SDS011;6595;49.578;11.012;2022-09-13T05:04:23;8.8;;;7.9;;
13057;SDS011;6595;49.578;11.012;2022-09-13T05:06:24;9.1;;;8.2;;
13057;SDS011;6595;49.578;11.012;2022-09-13T05:08:24;9.1;;;8.2;;
13057;SDS011;6595;49.578;11.012;2022-09-13T05:10:24;9.1;;;8.2;;
13057;SDS011;6595;49.578;11.012;2022-09-13T05:12:24;9.1;;;8.2;;
13057;SDS011;6595;49.578;11.012;2022-09-13T05:14:24;8.9;;;8.0;;
13057;SDS011;6595;49.578;11.012;2022-09-13T05:16:24;13.6;;;11.5;;
13057;SDS011;6595;49.578;11.012;2022-09-13T05:18:24;13.6;;;11.5;;
13057;SDS011;6595;49.578;11.012;2022-09-13T05:20:23;9.0;;;8.1;;
13057;SDS011;6595;49.578;11.012;2022-09-13T05:22:23;9.9;;;8.7;;
13057;SDS011;6595;49.578;11.012;2022-09-13T05:24:23;9.9;;;8.7;;
13057;SDS011;6595;49.578;11.012;2022-09-13T05:26:24;9.9;;;8.4;;
13057;SDS011;6595;49.578;11.012;2022-09-13T05:28:24;10.6;;;8.0;;
13057;SDS011;6595;49.578;11.012;2022-09-13T05:30:23;9.1;;;8.2;;
13057;SDS011;6595;49.578;11.012;2022-09-13T05:32:23;9.2;;;8.2;;
13057;SDS011;6595;49.578;11.012;2022-09-13T05:34:23;9.2;;;8.2;;
13057;SDS011;6595;49.578;11.012;2022-09-13T05:36:23;9.1;;;8.1;;
13057;SDS011;6595;49.578;11.012;2022-09-13T05:38:23;9.2;;;8.3;;
13057;SDS011;6595;49.578;11.012;2022-09-13T05:40:23;11.3;;;7.9;;
13057;SDS011;6595;49.578;11.012;2022-09-13T05:42:23;9.8;;;8.1;;
13057;SDS011;6595;49.578;11.012;2022-09-13T05:44:23;9.1;;;8.1;;
13057;SDS011;6595;49.578;11.012;2022-09-13T05:46:24;9.1;;;8.1;;
13057;SDS011;6595;49.578;11.012;2022-09-13T05:48:24;9.6;;;8.2;;
13057;SDS011;6595;49.578;11.012;2022-09-13T05:50:23;8.6;;;7.7;;
13057;SDS011;6595;49.578;11.012;2022-09-13T05:52:23;8.8;;;7.4;;
13057;SDS011;6595;49.578;11.012;2022-09-13T05:54:23;9.8;;;7.9;;
13057;SDS011;6595;49.578;11.012;2022-09-13T05:56:24;9.8;;;7.9;;
13057;SDS011;6595;49.578;11.012;2022-09-13T05:58:23;9.7;;;8.0;;
13057;SDS011;6595;49.578;11.012;2022-09-13T06:00:24;6.9;;;6.2;;
13057;SDS011;6595;49.578;11.012;2022-09-13T06:02:24;7.2;;;6.5;;
13057;SDS011;6595;49.578;11.012;2022-09-13T06:04:24;7.2;;;6.5;;
13057;SDS011;6595;49.578;11.012;2022-09-13T06:06:24;7.2;;;6.5;;
13057;SDS011;6595;49.578;11.012;2022-09-13T06:08:24;6.4;;;5.9;;
13057;SDS011;6595;49.578;11.012;2022-09-13T06:10:24;6.8;;;5.9;;
13057;SDS011;6595;49.578;11.012;2022-09-13T06:12:23;6.6;;;6.0;;
13057;SDS011;6595;49.578;11.012;2022-09-13T06:14:24;6.6;;;6.0;;
13057;SDS011;6595;49.578;11.012;2022-09-13T06:16:23;6.6;;;6.0;;
13057;SDS011;6595;49.578;11.012;2022-09-13T06:18:23;6.5;;;5.9;;
13057;SDS011;6595;49.578;11.012;2022-09-13T06:20:23;6.5;;;5.9;;
13057;SDS011;6595;49.578;11.012;2022-09-13T06:22:23;6.8;;;6.2;;
13057;SDS011;6595;49.578;11.012;2022-09-13T06:24:23;6.8;;;6.2;;
13057;SDS011;6595;49.578;11.012;2022-09-13T06:26:24;7.8;;;6.3;;
13057;SDS011;6595;49.578;11.012;2022-09-13T06:28:23;7.1;;;6.3;;
13057;SDS011;6595;49.578;11.012;2022-09-13T06:30:23;8.5;;;6.0;;
13057;SDS011;6595;49.578;11.012;2022-09-13T06:32:23;6.9;;;6.2;;
13057;SDS011;6595;49.578;11.012;2022-09-13T06:34:24;6.9;;;6.2;;
13057;SDS011;6595;49.578;11.012;2022-09-13T06:36:23;6.9;;;6.3;;
13057;SDS011;6595;49.578;11.012;2022-09-13T06:38:23;7.3;;;6.3;;
13057;SDS011;6595;49.578;11.012;2022-09-13T06:40:24;10.9;;;6.1;;
13057;SDS011;6595;49.578;11.012;2022-09-13T06:42:24;10.9;;;6.1;;
13057;SDS011;6595;49.578;11.012;2022-09-13T06:44:24;6.3;;;5.7;;
13057;SDS011;6595;49.578;11.012;2022-09-13T06:46:24;6.6;;;5.9;;
13057;SDS011;6595;49.578;11.012;2022-09-13T06:48:23;6.0;;;5.5;;
13057;SDS011;6595;49.578;11.012;2022-09-13T06:50:23;7.5;;;6.1;;
13057;SDS011;6595;49.578;11.012;2022-09-13T06:52:23;7.5;;;6.1;;
13057;SDS011;6595;49.578;11.012;2022-09-13T06:54:23;6.9;;;5.7;;
13057;SDS011;6595;49.578;11.012;2022-09-13T06:56:24;6.4;;;5.8;;
13057;SDS011;6595;49.578;11.012;2022-09-13T06:58:23;6.5;;;5.9;;
13057;SDS011;6595;49.578;11.012;2022-09-13T07:00:23;6.4;;;5.7;;
13057;SDS011;6595;49.578;11.012;2022-09-13T07:02:24;6.4;;;5.7;;
13057;SDS011;6595;49.578;11.012;2022-09-13T07:04:23;6.9;;;6.2;;
13057;SDS011;6595;49.578;11.012;2022-09-13T07:06:24;5.7;;;5.2;;
13057;SDS011;6595;49.578;11.012;2022-09-13T07:08:23;6.2;;;5.6;;
13057;SDS011;6595;49.578;11.012;2022-09-13T07:10:23;6.1;;;5.5;;
13057;SDS011;6595;49.578;11.012;2022-09-13T07:12:23;6.1;;;5.5;;
13057;SDS011;6595;49.578;11.012;2022-09-13T07:14:24;5.9;;;5.4;;
13057;SDS011;6595;49.578;11.012;2022-09-13T07:16:24;5.9;;;5.3;;
13057;SDS011;6595;49.578;11.012;2022-09-13T07:18:23;5.7;;;5.2;;
13057;SDS011;6595;49.578;11.012;2022-09-13T07:20:24;5.8;;;5.3;;
13057;SDS011;6595;49.578;11.012;2022-09-13T07:22:24;5.8;;;5.3;;
13057;SDS011;6595;49.578;11.012;2022-09-13T07:24:23;5.8;;;5.3;;
13057;SDS011;6595;49.578;11.012;2022-09-13T07:26:24;6.4;;;5.7;;
13057;SDS011;6595;49.578;11.012;2022-09-13T07:28:23;5.7;;;5.2;;
13057;SDS011;6595;49.578;11.012;2022-09-13T07:30:24;5.7;;;5.2;;
13057;SDS011;6595;49.578;11.012;2022-09-13T07:32:23;6.1;;;5.3;;
13057;SDS011;6595;49.578;11.012;2022-09-13T07:34:24;6.0;;;5.5;;
13057;SDS011;6595;49.578;11.012;2022-09-13T07:36:24;6.0;;;5.4;;
13057;SDS011;6595;49.578;11.012;2022-09-13T07:38:24;6.1;;;5.5;;
13057;SDS011;6595;49.578;11.012;2022-09-13T07:40:23;6.1;;;5.5;;
13057;SDS011;6595;49.578;11.012;2022-09-13T07:42:23;5.9;;;5.5;;
13057;SDS011;6595;49.578;11.012;2022-09-13T07:44:23;6.2;;;5.7;;
13057;SDS011;6595;49.578;11.012;2022-09-13T07:46:24;5.8;;;5.3;;
13057;SDS011;6595;49.578;11.012;2022-09-13T07:48:24;5.7;;;5.3;;
13057;SDS011;6595;49.578;11.012;2022-09-13T07:50:24;5.7;;;5.3;;
13057;SDS011;6595;49.578;11.012;2022-09-13T07:52:23;5.6;;;5.1;;
13057;SDS011;6595;49.578;11.012;2022-09-13T07:54:23;5.9;;;5.3;;
13057;SDS011;6595;49.578;11.012;2022-09-13T07:56:24;5.2;;;4.7;;
13057;SDS011;6595;49.578;11.012;2022-09-13T07:58:23;5.2;;;4.7;;
13057;SDS011;6595;49.578;11.012;2022-09-13T08:00:23;5.8;;;5.3;;
13057;SDS011;6595;49.578;11.012;2022-09-13T08:02:24;5.8;;;5.3;;
13057;SDS011;6595;49.578;11.012;2022-09-13T08:04:24;5.8;;;5.3;;
13057;SDS011;6595;49.578;11.012;2022-09-13T08:06:24;5.5;;;5.1;;
13057;SDS011;6595;49.578;11.012;2022-09-13T08:08:23;5.5;;;5.1;;
13057;SDS011;6595;49.578;11.012;2022-09-13T08:10:23;6.0;;;5.4;;
13057;SDS011;6595;49.578;11.012;2022-09-13T08:12:23;5.8;;;5.0;;
13057;SDS011;6595;49.578;11.012;2022-09-13T08:14:23;5.9;;;5.4;;
13057;SDS011;6595;49.578;11.012;2022-09-13T08:16:23;6.4;;;5.5;;
13057;SDS011;6595;49.578;11.012;2022-09-13T08:18:24;6.4;;;5.5;;
13057;SDS011;6595;49.578;11.012;2022-09-13T08:20:23;5.8;;;5.3;;
13057;SDS011;6595;49.578;11.012;2022-09-13T08:22:23;6.0;;;5.5;;
13057;SDS011;6595;49.578;11.012;2022-09-13T08:24:24;6.0;;;5.5;;
13057;SDS011;6595;49.578;11.012;2022-09-13T08:26:23;5.7;;;5.3;;
13057;SDS011;6595;49.578;11.012;2022-09-13T08:28:23;6.5;;;5.9;;
13057;SDS011;6595;49.578;11.012;2022-09-13T08:30:24;5.6;;;5.1;;
13057;SDS011;6595;49.578;11.012;2022-09-13T08:32:23;5.2;;;4.8;;
13057;SDS011;6595;49.578;11.012;2022-09-13T08:34:23;6.0;;;5.5;;
13057;SDS011;6595;49.578;11.012;2022-09-13T08:36:24;5.2;;;4.8;;
13057;SDS011;6595;49.578;11.012;2022-09-13T08:38:23;5.2;;;4.8;;
13057;SDS011;6595;49.578;11.012;2022-09-13T08:40:24;5.1;;;4.7;;
13057;SDS011;6595;49.578;11.012;2022-09-13T08:42:25;5.3;;;4.9;;
13057;SDS011;6595;49.578;11.012;2022-09-13T08:44:24;5.3;;;4.9;;
13057;SDS011;6595;49.578;11.012;2022-09-13T08:46:25;5.6;;;5.1;;
13057;SDS011;6595;49.578;11.012;2022-09-13T08:48:25;5.4;;;4.9;;
13057;SDS011;6595;49.578;11.012;2022-09-13T08:50:25;5.4;;;4.9;;
13057;SDS011;6595;49.578;11.012;2022-09-13T08:52:25;5.1;;;4.7;;
13057;SDS011;6595;49.578;11.012;2022-09-13T08:54:24;5.1;;;4.7;;
13057;SDS011;6595;49.578;11.012;2022-09-13T08:56:25;4.8;;;4.4;;
13057;SDS011;6595;49.578;11.012;2022-09-13T08:58:27;4.8;;;4.4;;
13057;SDS011;6595;49.578;11.012;2022-09-13T09:00:25;4.8;;;4.4;;
13057;SDS011;6595;49.578;11.012;2022-09-13T09:02:40;5.0;;;4.6;;
13057;SDS011;6595;49.578;11.012;2022-09-13T09:04:29;4.5;;;4.2;;
13057;SDS011;6595;49.578;11.012;2022-09-13T09:06:23;4.8;;;4.3;;
13057;SDS011;6595;49.578;11.012;2022-09-13T09:08:27;4.8;;;4.3;;
13057;SDS011;6595;49.578;11.012;2022-09-13T09:10:24;4.9;;;4.5;;
13057;SDS011;6595;49.578;11.012;2022-09-13T09:12:25;4.5;;;4.2;;
13057;SDS011;6595;49.578;11.012;2022-09-13T09:14:24;4.9;;;4.5;;
13057;SDS011;6595;49.578;11.012;2022-09-13T09:16:27;4.7;;;4.3;;
13057;SDS011;6595;49.578;11.012;2022-09-13T09:18:24;4.7;;;4.3;;
13057;SDS011;6595;49.578;11.012;2022-09-13T09:20:24;5.5;;;5.0;;
13057;SDS011;6595;49.578;11.012;2022-09-13T09:22:24;4.9;;;4.5;;
13057;SDS011;6595;49.578;11.012;2022-09-13T09:24:24;5.0;;;4.5;;
13057;SDS011;6595;49.578;11.012;2022-09-13T09:26:24;4.5;;;4.1;;
13057;SDS011;6595;49.578;11.012;2022-09-13T09:28:23;4.5;;;4.1;;
13057;SDS011;6595;49.578;11.012;2022-09-13T09:30:23;4.8;;;4.4;;
13057;SDS011;6595;49.578;11.012;2022-09-13T09:32:34;4.5;;;4.1;;
13057;SDS011;6595;49.578;11.012;2022-09-13T09:34:26;4.7;;;4.3;;
13057;SDS011;6595;49.578;11.012;2022-09-13T09:36:26;4.7;;;4.3;;
13057;SDS011;6595;49.578;11.012;2022-09-13T09:38:27;4.8;;;4.2;;
13057;SDS011;6595;49.578;11.012;2022-09-13T09:40:24;4.5;;;4.2;;
13057;SDS011;6595;49.578;11.012;2022-09-13T09:42:24;4.6;;;4.3;;
13057;SDS011;6595;49.578;11.012;2022-09-13T09:44:24;4.5;;;4.1;;
13057;SDS011;6595;49.578;11.012;2022-09-13T09:46:25;4.5;;;4.1;;
13057;SDS011;6595;49.578;11.012;2022-09-13T09:48:26;4.5;;;4.2;;
13057;SDS011;6595;49.578;11.012;2022-09-13T09:50:24;4.7;;;4.3;;
13057;SDS011;6595;49.578;11.012;2022-09-13T09:52:25;4.6;;;3.9;;
13057;SDS011;6595;49.578;11.012;2022-09-13T09:54:23;4.4;;;4.1;;
13057;SDS011;6595;49.578;11.012;2022-09-13T09:56:24;4.4;;;4.1;;
13057;SDS011;6595;49.578;11.012;2022-09-13T10:00:24;4.3;;;4.0;;
13057;SDS011;6595;49.578;11.012;2022-09-13T10:02:23;6.8;;;5.0;;
13057;SDS011;6595;49.578;11.012;2022-09-13T10:04:24;6.4;;;4.9;;
13057;SDS011;6595;49.578;11.012;2022-09-13T10:06:24;6.4;;;4.9;;
13057;SDS011;6595;49.578;11.012;2022-09-13T10:08:24;4.8;;;4.4;;
13057;SDS011;6595;49.578;11.012;2022-09-13T10:10:25;4.5;;;4.2;;
13057;SDS011;6595;49.578;11.012;2022-09-13T10:12:25;5.1;;;4.7;;
13057;SDS011;6595;49.578;11.012;2022-09-13T10:14:26;4.9;;;4.5;;
13057;SDS011;6595;49.578;11.012;2022-09-13T10:16:24;4.9;;;4.5;;
13057;SDS011;6595;49.578;11.012;2022-09-13T10:18:24;5.3;;;4.8;;
13057;SDS011;6595;49.578;11.012;2022-09-13T10:20:23;4.8;;;4.4;;
13057;SDS011;6595;49.578;11.012;2022-09-13T10:22:23;4.5;;;4.2;;
13057;SDS011;6595;49.578;11.012;2022-09-13T10:24:23;4.5;;;4.1;;
13057;SDS011;6595;49.578;11.012;2022-09-13T10:26:24;4.5;;;4.1;;
13057;SDS011;6595;49.578;11.012;2022-09-13T10:28:23;4.2;;;3.9;;
13057;SDS011;6595;49.578;11.012;2022-09-13T10:30:28;4.4;;;4.0;;
13057;SDS011;6595;49.578;11.012;2022-09-13T10:32:24;4.5;;;4.2;;
13057;SDS011;6595;49.578;11.012;2022-09-13T10:34:25;4.5;;;4.2;;
13057;SDS011;6595;49.578;11.012;2022-09-13T10:36:24;5.2;;;4.8;;
13057;SDS011;6595;49.578;11.012;2022-09-13T10:38:25;4.6;;;4.2;;
13057;SDS011;6595;49.578;11.012;2022-09-13T10:40:25;4.0;;;3.7;;
13057;SDS011;6595;49.578;11.012;2022-09-13T10:42:23;4.0;;;3.7;;
13057;SDS011;6595;49.578;11.012;2022-09-13T10:44:27;4.1;;;3.8;;
13057;SDS011;6595;49.578;11.012;2022-09-13T10:46:23;4.2;;;3.9;;
13057;SDS011;6595;49.578;11.012;2022-09-13T10:48:24;4.4;;;4.1;;
13057;SDS011;6595;49.578;11.012;2022-09-13T10:50:24;4.5;;;4.2;;
13057;SDS011;6595;49.578;11.012;2022-09-13T10:52:26;5.0;;;4.7;;
13057;SDS011;6595;49.578;11.012;2022-09-13T10:54:23;5.0;;;4.7;;
13057;SDS011;6595;49.578;11.012;2022-09-13T10:56:24;4.1;;;3.8;;
13057;SDS011;6595;49.578;11.012;2022-09-13T10:58:23;4.6;;;4.3;;
13057;SDS011;6595;49.578;11.012;2022-09-13T11:00:26;4.1;;;3.8;;
13057;SDS011;6595;49.578;11.012;2022-09-13T11:02:30;4.1;;;3.8;;
13057;SDS011;6595;49.578;11.012;2022-09-13T11:06:25;3.7;;;3.4;;
13057;SDS011;6595;49.578;11.012;2022-09-13T11:08:28;4.0;;;3.6;;
13057;SDS011;6595;49.578;11.012;2022-09-13T11:10:25;3.5;;;3.3;;
13057;SDS011;6595;49.578;11.012;2022-09-13T11:12:25;3.5;;;3.3;;
13057;SDS011;6595;49.578;11.012;2022-09-13T11:14:29;3.7;;;3.4;;
13057;SDS011;6595;49.578;11.012;2022-09-13T11:16:28;4.3;;;3.9;;
13057;SDS011;6595;49.578;11.012;2022-09-13T11:18:27;4.3;;;4.0;;
13057;SDS011;6595;49.578;11.012;2022-09-13T11:20:27;3.8;;;3.4;;
13057;SDS011;6595;49.578;11.012;2022-09-13T11:22:27;3.8;;;3.4;;
13057;SDS011;6595;49.578;11.012;2022-09-13T11:24:27;3.9;;;3.6;;
13057;SDS011;6595;49.578;11.012;2022-09-13T11:26:27;4.1;;;3.7;;
13057;SDS011;6595;49.578;11.012;2022-09-13T11:28:25;3.4;;;3.2;;
13057;SDS011;6595;49.578;11.012;2022-09-13T11:30:23;3.4;;;3.1;;
13057;SDS011;6595;49.578;11.012;2022-09-13T11:32:27;3.4;;;3.1;;
13057;SDS011;6595;49.578;11.012;2022-09-13T11:34:28;3.7;;;3.4;;
13057;SDS011;6595;49.578;11.012;2022-09-13T11:36:27;3.3;;;3.1;;
13057;SDS011;6595;49.578;11.012;2022-09-13T11:38:28;3.5;;;3.2;;
13057;SDS011;6595;49.578;11.012;2022-09-13T11:40:28;3.6;;;3.4;;
13057;SDS011;6595;49.578;11.012;2022-09-13T11:42:27;3.6;;;3.4;;
13057;SDS011;6595;49.578;11.012;2022-09-13T11:44:29;3.6;;;3.3;;
13057;SDS011;6595;49.578;11.012;2022-09-13T11:46:26;3.1;;;2.9;;
13057;SDS011;6595;49.578;11.012;2022-09-13T11:50:26;3.9;;;3.6;;
13057;SDS011;6595;49.578;11.012;2022-09-13T11:52:25;3.9;;;3.6;;
13057;SDS011;6595;49.578;11.012;2022-09-13T11:54:28;3.9;;;3.3;;
13057;SDS011;6595;49.578;11.012;2022-09-13T11:56:25;3.8;;;3.5;;
13057;SDS011;6595;49.578;11.012;2022-09-13T11:58:24;4.3;;;3.9;;
13057;SDS011;6595;49.578;11.012;2022-09-13T12:00:25;4.3;;;3.9;;
13057;SDS011;6595;49.578;11.012;2022-09-13T12:02:25;3.3;;;3.1;;
13057;SDS011;6595;49.578;11.012;2022-09-13T12:04:25;3.5;;;3.2;;
13057;SDS011;6595;49.578;11.012;2022-09-13T12:06:24;3.5;;;3.2;;
13057;SDS011;6595;49.578;11.012;2022-09-13T12:08:24;3.7;;;3.4;;
13057;SDS011;6595;49.578;11.012;2022-09-13T12:10:23;3.5;;;3.3;;
13057;SDS011;6595;49.578;11.012;2022-09-13T12:12:24;3.2;;;3.0;;
13057;SDS011;6595;49.578;11.012;2022-09-13T12:14:24;3.7;;;3.4;;
13057;SDS011;6595;49.578;11.012;2022-09-13T12:16:25;3.7;;;3.4;;
13057;SDS011;6595;49.578;11.012;2022-09-13T12:18:24;4.4;;;4.0;;
13057;SDS011;6595;49.578;11.012;2022-09-13T12:20:28;4.4;;;4.0;;
13057;SDS011;6595;49.578;11.012;2022-09-13T12:22:25;3.8;;;3.6;;
13057;SDS011;6595;49.578;11.012;2022-09-13T12:24:27;3.9;;;3.6;;
13057;SDS011;6595;49.578;11.012;2022-09-13T12:26:25;3.9;;;3.6;;
13057;SDS011;6595;49.578;11.012;2022-09-13T12:28:25;4.6;;;3.6;;
13057;SDS011;6595;49.578;11.012;2022-09-13T12:30:24;4.6;;;3.6;;
13057;SDS011;6595;49.578;11.012;2022-09-13T12:32:24;4.6;;;3.6;;
13057;SDS011;6595;49.578;11.012;2022-09-13T12:34:25;4.3;;;3.3;;